sensor_id;sensor_type;location;lat;lon;timestamp;P1;durP1;ratioP1;P2;durP2;ratioP2
52564;SDS011;38460;53.106;7.004;2022-09-21T00:00:44;6.30;;;3.35;;
52564;SDS011;38460;53.106;7.004;2022-09-21T00:03:10;4.95;;;3.03;;
52564;SDS011;38460;53.106;7.004;2022-09-21T00:05:36;7.68;;;3.90;;
52564;SDS011;38460;53.106;7.004;2022-09-21T00:08:03;9.07;;;4.80;;
52564;SDS011;38460;53.106;7.004;2022-09-21T00:10:30;7.88;;;3.38;;
52564;SDS011;38460;53.106;7.004;2022-09-21T00:12:57;8.10;;;4.53;;
52564;SDS011;38460;53.106;7.004;2022-09-21T00:15:23;9.45;;;4.10;;
52564;SDS011;38460;53.106;7.004;2022-09-21T00:17:54;9.20;;;4.38;;
52564;SDS011;38460;53.106;7.004;2022-09-21T00:20:21;7.03;;;3.83;;
52564;SDS011;38460;53.106;7.004;2022-09-21T00:22:49;9.65;;;4.85;;
52564;SDS011;38460;53.106;7.004;2022-09-21T00:25:15;10.73;;;5.13;;
52564;SDS011;38460;53.106;7.004;2022-09-21T00:27:42;13.77;;;5.47;;
52564;SDS011;38460;53.106;7.004;2022-09-21T00:30:08;11.40;;;4.60;;
52564;SDS011;38460;53.106;7.004;2022-09-21T00:32:36;8.13;;;4.88;;
52564;SDS011;38460;53.106;7.004;2022-09-21T00:35:04;7.55;;;4.57;;
52564;SDS011;38460;53.106;7.004;2022-09-21T00:37:32;10.88;;;3.80;;
52564;SDS011;38460;53.106;7.004;2022-09-21T00:39:58;9.98;;;4.78;;
52564;SDS011;38460;53.106;7.004;2022-09-21T00:42:25;9.65;;;5.40;;
52564;SDS011;38460;53.106;7.004;2022-09-21T00:44:55;10.20;;;5.38;;
52564;SDS011;38460;53.106;7.004;2022-09-21T00:47:22;9.73;;;4.15;;
52564;SDS011;38460;53.106;7.004;2022-09-21T00:49:55;10.50;;;4.47;;
52564;SDS011;38460;53.106;7.004;2022-09-21T00:52:23;11.27;;;4.65;;
52564;SDS011;38460;53.106;7.004;2022-09-21T00:57:19;6.03;;;3.63;;
52564;SDS011;38460;53.106;7.004;2022-09-21T00:59:48;10.68;;;4.25;;
52564;SDS011;38460;53.106;7.004;2022-09-21T01:02:16;8.82;;;3.78;;
52564;SDS011;38460;53.106;7.004;2022-09-21T01:04:43;7.82;;;5.07;;
52564;SDS011;38460;53.106;7.004;2022-09-21T01:07:10;11.75;;;5.75;;
52564;SDS011;38460;53.106;7.004;2022-09-21T01:09:42;6.50;;;4.20;;
52564;SDS011;38460;53.106;7.004;2022-09-21T01:18:20;10.02;;;4.40;;
52564;SDS011;38460;53.106;7.004;2022-09-21T01:21:26;10.77;;;4.30;;
52564;SDS011;38460;53.106;7.004;2022-09-21T01:29:26;12.23;;;4.80;;
52564;SDS011;38460;53.106;7.004;2022-09-21T01:32:04;8.93;;;4.50;;
52564;SDS011;38460;53.106;7.004;2022-09-21T01:34:44;8.90;;;5.25;;
52564;SDS011;38460;53.106;7.004;2022-09-21T01:40:28;10.45;;;4.38;;
52564;SDS011;38460;53.106;7.004;2022-09-21T01:42:58;7.68;;;3.30;;
52564;SDS011;38460;53.106;7.004;2022-09-21T01:45:30;6.82;;;3.70;;
52564;SDS011;38460;53.106;7.004;2022-09-21T01:48:02;6.88;;;3.45;;
52564;SDS011;38460;53.106;7.004;2022-09-21T01:50:36;5.97;;;3.35;;
52564;SDS011;38460;53.106;7.004;2022-09-21T01:53:25;7.40;;;3.38;;
52564;SDS011;38460;53.106;7.004;2022-09-21T01:56:06;8.82;;;3.95;;
52564;SDS011;38460;53.106;7.004;2022-09-21T02:01:28;10.68;;;5.07;;
52564;SDS011;38460;53.106;7.004;2022-09-21T02:03:58;7.43;;;4.22;;
52564;SDS011;38460;53.106;7.004;2022-09-21T02:06:29;7.22;;;4.50;;
52564;SDS011;38460;53.106;7.004;2022-09-21T02:08:56;8.23;;;4.30;;
52564;SDS011;38460;53.106;7.004;2022-09-21T02:11:22;6.40;;;4.45;;
52564;SDS011;38460;53.106;7.004;2022-09-21T02:13:49;8.60;;;5.28;;
52564;SDS011;38460;53.106;7.004;2022-09-21T02:24:37;8.18;;;5.60;;
52564;SDS011;38460;53.106;7.004;2022-09-21T02:30:18;7.22;;;5.60;;
52564;SDS011;38460;53.106;7.004;2022-09-21T02:32:47;8.00;;;5.22;;
52564;SDS011;38460;53.106;7.004;2022-09-21T02:38:40;8.55;;;5.40;;
52564;SDS011;38460;53.106;7.004;2022-09-21T02:41:30;8.80;;;5.05;;
52564;SDS011;38460;53.106;7.004;2022-09-21T02:46:35;8.00;;;5.13;;
52564;SDS011;38460;53.106;7.004;2022-09-21T02:49:12;9.40;;;4.70;;
52564;SDS011;38460;53.106;7.004;2022-09-21T02:51:52;8.00;;;5.05;;
52564;SDS011;38460;53.106;7.004;2022-09-21T02:54:24;7.72;;;5.00;;
52564;SDS011;38460;53.106;7.004;2022-09-21T02:56:53;10.20;;;4.93;;
52564;SDS011;38460;53.106;7.004;2022-09-21T02:59:20;8.52;;;4.72;;
52564;SDS011;38460;53.106;7.004;2022-09-21T03:01:48;6.65;;;4.28;;
52564;SDS011;38460;53.106;7.004;2022-09-21T03:04:15;9.63;;;5.03;;
52564;SDS011;38460;53.106;7.004;2022-09-21T03:06:41;6.78;;;4.22;;
52564;SDS011;38460;53.106;7.004;2022-09-21T03:09:07;8.00;;;4.65;;
52564;SDS011;38460;53.106;7.004;2022-09-21T03:11:33;8.38;;;4.60;;
52564;SDS011;38460;53.106;7.004;2022-09-21T03:14:00;10.45;;;4.90;;
52564;SDS011;38460;53.106;7.004;2022-09-21T03:16:29;9.45;;;4.47;;
52564;SDS011;38460;53.106;7.004;2022-09-21T03:18:55;7.07;;;4.35;;
52564;SDS011;38460;53.106;7.004;2022-09-21T03:21:21;8.13;;;4.15;;
52564;SDS011;38460;53.106;7.004;2022-09-21T03:23:46;9.35;;;4.13;;
52564;SDS011;38460;53.106;7.004;2022-09-21T03:26:12;7.13;;;3.28;;
52564;SDS011;38460;53.106;7.004;2022-09-21T03:28:38;7.30;;;3.97;;
52564;SDS011;38460;53.106;7.004;2022-09-21T03:31:04;7.80;;;3.92;;
52564;SDS011;38460;53.106;7.004;2022-09-21T03:33:30;7.85;;;3.33;;
52564;SDS011;38460;53.106;7.004;2022-09-21T03:35:56;8.40;;;3.88;;
52564;SDS011;38460;53.106;7.004;2022-09-21T03:38:22;9.13;;;3.75;;
52564;SDS011;38460;53.106;7.004;2022-09-21T03:40:49;7.85;;;4.22;;
52564;SDS011;38460;53.106;7.004;2022-09-21T03:43:16;5.72;;;3.38;;
52564;SDS011;38460;53.106;7.004;2022-09-21T03:45:42;10.27;;;3.97;;
52564;SDS011;38460;53.106;7.004;2022-09-21T03:48:08;6.90;;;4.03;;
52564;SDS011;38460;53.106;7.004;2022-09-21T03:50:35;5.95;;;3.58;;
52564;SDS011;38460;53.106;7.004;2022-09-21T03:53:02;7.53;;;3.20;;
52564;SDS011;38460;53.106;7.004;2022-09-21T03:55:29;6.20;;;3.63;;
52564;SDS011;38460;53.106;7.004;2022-09-21T03:57:55;7.00;;;3.10;;
52564;SDS011;38460;53.106;7.004;2022-09-21T04:00:21;5.32;;;3.25;;
52564;SDS011;38460;53.106;7.004;2022-09-21T04:02:47;4.30;;;2.90;;
52564;SDS011;38460;53.106;7.004;2022-09-21T04:05:14;5.32;;;3.53;;
52564;SDS011;38460;53.106;7.004;2022-09-21T04:07:40;8.93;;;3.70;;
52564;SDS011;38460;53.106;7.004;2022-09-21T04:10:10;5.57;;;3.35;;
52564;SDS011;38460;53.106;7.004;2022-09-21T04:12:37;8.40;;;3.33;;
52564;SDS011;38460;53.106;7.004;2022-09-21T04:15:10;6.85;;;3.25;;
52564;SDS011;38460;53.106;7.004;2022-09-21T04:17:43;6.50;;;3.05;;
52564;SDS011;38460;53.106;7.004;2022-09-21T04:20:10;7.15;;;4.20;;
52564;SDS011;38460;53.106;7.004;2022-09-21T04:22:36;6.95;;;3.33;;
52564;SDS011;38460;53.106;7.004;2022-09-21T04:25:05;9.82;;;3.90;;
52564;SDS011;38460;53.106;7.004;2022-09-21T04:27:31;6.95;;;3.53;;
52564;SDS011;38460;53.106;7.004;2022-09-21T04:29:58;5.03;;;3.28;;
52564;SDS011;38460;53.106;7.004;2022-09-21T04:32:24;7.18;;;3.85;;
52564;SDS011;38460;53.106;7.004;2022-09-21T04:34:50;5.30;;;3.22;;
52564;SDS011;38460;53.106;7.004;2022-09-21T04:37:16;8.30;;;3.20;;
52564;SDS011;38460;53.106;7.004;2022-09-21T04:39:41;5.10;;;2.90;;
52564;SDS011;38460;53.106;7.004;2022-09-21T04:42:07;5.32;;;3.83;;
52564;SDS011;38460;53.106;7.004;2022-09-21T04:44:34;9.82;;;4.13;;
52564;SDS011;38460;53.106;7.004;2022-09-21T04:46:59;9.63;;;3.75;;
52564;SDS011;38460;53.106;7.004;2022-09-21T04:49:25;7.32;;;3.30;;
52564;SDS011;38460;53.106;7.004;2022-09-21T04:51:51;7.65;;;3.03;;
52564;SDS011;38460;53.106;7.004;2022-09-21T04:54:16;7.00;;;3.22;;
52564;SDS011;38460;53.106;7.004;2022-09-21T04:56:42;7.10;;;3.08;;
52564;SDS011;38460;53.106;7.004;2022-09-21T04:59:08;5.82;;;3.13;;
52564;SDS011;38460;53.106;7.004;2022-09-21T05:01:33;4.65;;;3.10;;
52564;SDS011;38460;53.106;7.004;2022-09-21T05:03:59;5.18;;;3.30;;
52564;SDS011;38460;53.106;7.004;2022-09-21T05:06:28;6.22;;;3.22;;
52564;SDS011;38460;53.106;7.004;2022-09-21T05:08:54;5.15;;;2.92;;
52564;SDS011;38460;53.106;7.004;2022-09-21T05:11:39;6.05;;;3.40;;
52564;SDS011;38460;53.106;7.004;2022-09-21T05:14:04;5.38;;;3.30;;
52564;SDS011;38460;53.106;7.004;2022-09-21T05:16:31;7.40;;;3.25;;
52564;SDS011;38460;53.106;7.004;2022-09-21T05:18:57;8.50;;;3.67;;
52564;SDS011;38460;53.106;7.004;2022-09-21T05:21:23;6.50;;;2.92;;
52564;SDS011;38460;53.106;7.004;2022-09-21T05:23:48;4.97;;;3.35;;
52564;SDS011;38460;53.106;7.004;2022-09-21T05:26:15;5.10;;;3.10;;
52564;SDS011;38460;53.106;7.004;2022-09-21T05:28:40;4.63;;;2.97;;
52564;SDS011;38460;53.106;7.004;2022-09-21T05:33:43;4.00;;;2.63;;
52564;SDS011;38460;53.106;7.004;2022-09-21T05:38:52;6.28;;;3.70;;
52564;SDS011;38460;53.106;7.004;2022-09-21T05:41:18;9.07;;;3.38;;
52564;SDS011;38460;53.106;7.004;2022-09-21T05:43:44;4.72;;;2.72;;
52564;SDS011;38460;53.106;7.004;2022-09-21T05:46:12;5.82;;;3.10;;
52564;SDS011;38460;53.106;7.004;2022-09-21T05:48:57;5.43;;;3.13;;
52564;SDS011;38460;53.106;7.004;2022-09-21T05:54:01;6.65;;;2.38;;
52564;SDS011;38460;53.106;7.004;2022-09-21T05:56:51;5.68;;;3.17;;
52564;SDS011;38460;53.106;7.004;2022-09-21T06:05:20;4.57;;;2.50;;
52564;SDS011;38460;53.106;7.004;2022-09-21T06:07:46;5.53;;;3.13;;
52564;SDS011;38460;53.106;7.004;2022-09-21T06:10:12;4.18;;;2.58;;
52564;SDS011;38460;53.106;7.004;2022-09-21T06:12:39;4.60;;;2.72;;
52564;SDS011;38460;53.106;7.004;2022-09-21T06:15:05;4.88;;;2.97;;
52564;SDS011;38460;53.106;7.004;2022-09-21T06:17:32;4.13;;;2.90;;
52564;SDS011;38460;53.106;7.004;2022-09-21T06:19:58;6.90;;;3.78;;
52564;SDS011;38460;53.106;7.004;2022-09-21T06:22:24;13.77;;;3.67;;
52564;SDS011;38460;53.106;7.004;2022-09-21T06:24:49;6.13;;;3.75;;
52564;SDS011;38460;53.106;7.004;2022-09-21T06:27:15;6.85;;;3.33;;
52564;SDS011;38460;53.106;7.004;2022-09-21T06:29:41;6.00;;;2.90;;
52564;SDS011;38460;53.106;7.004;2022-09-21T06:32:06;5.35;;;2.55;;
52564;SDS011;38460;53.106;7.004;2022-09-21T06:34:32;5.88;;;2.90;;
52564;SDS011;38460;53.106;7.004;2022-09-21T06:36:58;5.05;;;3.22;;
52564;SDS011;38460;53.106;7.004;2022-09-21T06:39:23;4.55;;;3.10;;
52564;SDS011;38460;53.106;7.004;2022-09-21T06:41:50;4.20;;;2.63;;
52564;SDS011;38460;53.106;7.004;2022-09-21T06:44:16;6.80;;;2.90;;
52564;SDS011;38460;53.106;7.004;2022-09-21T06:46:42;4.97;;;2.70;;
52564;SDS011;38460;53.106;7.004;2022-09-21T06:49:07;6.25;;;3.17;;
52564;SDS011;38460;53.106;7.004;2022-09-21T06:51:33;4.93;;;3.28;;
52564;SDS011;38460;53.106;7.004;2022-09-21T06:54:00;7.90;;;3.63;;
52564;SDS011;38460;53.106;7.004;2022-09-21T06:56:26;8.88;;;3.63;;
52564;SDS011;38460;53.106;7.004;2022-09-21T06:58:51;7.85;;;3.30;;
52564;SDS011;38460;53.106;7.004;2022-09-21T07:01:17;8.48;;;3.25;;
52564;SDS011;38460;53.106;7.004;2022-09-21T07:03:44;6.68;;;3.40;;
52564;SDS011;38460;53.106;7.004;2022-09-21T07:06:13;8.25;;;4.10;;
52564;SDS011;38460;53.106;7.004;2022-09-21T07:08:40;9.77;;;3.83;;
52564;SDS011;38460;53.106;7.004;2022-09-21T07:11:06;7.13;;;3.85;;
52564;SDS011;38460;53.106;7.004;2022-09-21T07:13:32;7.70;;;3.65;;
52564;SDS011;38460;53.106;7.004;2022-09-21T07:16:01;8.02;;;3.88;;
52564;SDS011;38460;53.106;7.004;2022-09-21T07:18:29;7.55;;;3.92;;
52564;SDS011;38460;53.106;7.004;2022-09-21T07:20:55;6.80;;;3.40;;
52564;SDS011;38460;53.106;7.004;2022-09-21T07:23:21;6.15;;;3.50;;
52564;SDS011;38460;53.106;7.004;2022-09-21T07:25:47;6.07;;;3.75;;
52564;SDS011;38460;53.106;7.004;2022-09-21T07:28:14;9.55;;;3.78;;
52564;SDS011;38460;53.106;7.004;2022-09-21T07:30:41;9.85;;;3.90;;
52564;SDS011;38460;53.106;7.004;2022-09-21T07:33:07;7.40;;;4.75;;
52564;SDS011;38460;53.106;7.004;2022-09-21T07:35:33;9.27;;;3.58;;
52564;SDS011;38460;53.106;7.004;2022-09-21T07:38:00;6.00;;;3.60;;
52564;SDS011;38460;53.106;7.004;2022-09-21T07:40:27;7.68;;;4.20;;
52564;SDS011;38460;53.106;7.004;2022-09-21T07:43:00;8.70;;;4.90;;
52564;SDS011;38460;53.106;7.004;2022-09-21T07:45:27;8.60;;;4.97;;
52564;SDS011;38460;53.106;7.004;2022-09-21T07:47:53;8.95;;;4.72;;
52564;SDS011;38460;53.106;7.004;2022-09-21T07:50:20;11.90;;;4.93;;
52564;SDS011;38460;53.106;7.004;2022-09-21T07:52:46;11.02;;;4.35;;
52564;SDS011;38460;53.106;7.004;2022-09-21T07:55:12;8.93;;;4.88;;
52564;SDS011;38460;53.106;7.004;2022-09-21T07:57:38;10.27;;;5.85;;
52564;SDS011;38460;53.106;7.004;2022-09-21T08:00:22;8.05;;;4.60;;
52564;SDS011;38460;53.106;7.004;2022-09-21T08:02:48;9.25;;;4.57;;
52564;SDS011;38460;53.106;7.004;2022-09-21T08:05:14;9.98;;;4.55;;
52564;SDS011;38460;53.106;7.004;2022-09-21T08:07:40;11.48;;;5.35;;
52564;SDS011;38460;53.106;7.004;2022-09-21T08:10:06;13.40;;;5.68;;
52564;SDS011;38460;53.106;7.004;2022-09-21T08:12:33;9.95;;;5.25;;
52564;SDS011;38460;53.106;7.004;2022-09-21T08:14:58;12.18;;;5.80;;
52564;SDS011;38460;53.106;7.004;2022-09-21T08:17:24;8.32;;;5.65;;
52564;SDS011;38460;53.106;7.004;2022-09-21T08:19:50;14.18;;;5.45;;
52564;SDS011;38460;53.106;7.004;2022-09-21T08:22:16;12.00;;;6.13;;
52564;SDS011;38460;53.106;7.004;2022-09-21T08:24:41;11.23;;;5.75;;
52564;SDS011;38460;53.106;7.004;2022-09-21T08:27:08;12.95;;;4.95;;
52564;SDS011;38460;53.106;7.004;2022-09-21T08:29:34;9.98;;;4.78;;
52564;SDS011;38460;53.106;7.004;2022-09-21T08:32:00;11.10;;;4.47;;
52564;SDS011;38460;53.106;7.004;2022-09-21T08:34:26;13.10;;;4.60;;
52564;SDS011;38460;53.106;7.004;2022-09-21T08:36:52;12.07;;;4.63;;
52564;SDS011;38460;53.106;7.004;2022-09-21T08:39:20;10.40;;;3.92;;
52564;SDS011;38460;53.106;7.004;2022-09-21T08:44:36;10.57;;;3.22;;
52564;SDS011;38460;53.106;7.004;2022-09-21T08:49:45;10.25;;;2.50;;
52564;SDS011;38460;53.106;7.004;2022-09-21T08:52:16;7.37;;;2.87;;
52564;SDS011;38460;53.106;7.004;2022-09-21T08:54:52;7.70;;;3.13;;
52564;SDS011;38460;53.106;7.004;2022-09-21T08:57:21;5.03;;;2.40;;
52564;SDS011;38460;53.106;7.004;2022-09-21T08:59:53;11.45;;;2.95;;
52564;SDS011;38460;53.106;7.004;2022-09-21T09:10:49;6.90;;;1.92;;
52564;SDS011;38460;53.106;7.004;2022-09-21T09:16:17;8.13;;;2.10;;
52564;SDS011;38460;53.106;7.004;2022-09-21T09:20:12;5.05;;;1.60;;
52564;SDS011;38460;53.106;7.004;2022-09-21T09:22:11;5.38;;;1.85;;
52564;SDS011;38460;53.106;7.004;2022-09-21T09:24:48;2.90;;;1.50;;
52564;SDS011;38460;53.106;7.004;2022-09-21T09:35:59;7.68;;;2.55;;
52564;SDS011;38460;53.106;7.004;2022-09-21T09:48:04;6.63;;;1.50;;
52564;SDS011;38460;53.106;7.004;2022-09-21T09:50:03;2.42;;;1.27;;
52564;SDS011;38460;53.106;7.004;2022-09-21T09:54:57;4.40;;;1.25;;
52564;SDS011;38460;53.106;7.004;2022-09-21T09:57:28;5.65;;;1.48;;
52564;SDS011;38460;53.106;7.004;2022-09-21T10:00:04;10.15;;;1.58;;
52564;SDS011;38460;53.106;7.004;2022-09-21T10:02:44;7.10;;;1.55;;
52564;SDS011;38460;53.106;7.004;2022-09-21T10:05:18;5.30;;;1.23;;
52564;SDS011;38460;53.106;7.004;2022-09-21T10:07:45;4.05;;;1.40;;
52564;SDS011;38460;53.106;7.004;2022-09-21T10:13:11;6.80;;;1.40;;
52564;SDS011;38460;53.106;7.004;2022-09-21T10:15:44;3.08;;;1.52;;
52564;SDS011;38460;53.106;7.004;2022-09-21T10:18:15;5.05;;;1.48;;
52564;SDS011;38460;53.106;7.004;2022-09-21T10:20:53;5.03;;;1.90;;
52564;SDS011;38460;53.106;7.004;2022-09-21T10:23:21;3.63;;;1.08;;
52564;SDS011;38460;53.106;7.004;2022-09-21T10:28:36;4.90;;;1.63;;
52564;SDS011;38460;53.106;7.004;2022-09-21T10:31:26;5.55;;;1.30;;
52564;SDS011;38460;53.106;7.004;2022-09-21T10:36:39;4.80;;;1.20;;
52564;SDS011;38460;53.106;7.004;2022-09-21T10:39:14;3.65;;;1.38;;
52564;SDS011;38460;53.106;7.004;2022-09-21T10:41:46;5.90;;;1.30;;
52564;SDS011;38460;53.106;7.004;2022-09-21T10:44:17;6.07;;;1.45;;
52564;SDS011;38460;53.106;7.004;2022-09-21T10:46:45;4.13;;;1.50;;
52564;SDS011;38460;53.106;7.004;2022-09-21T10:49:18;4.05;;;1.25;;
52564;SDS011;38460;53.106;7.004;2022-09-21T10:51:46;4.40;;;1.25;;
52564;SDS011;38460;53.106;7.004;2022-09-21T10:54:19;5.20;;;1.95;;
52564;SDS011;38460;53.106;7.004;2022-09-21T10:56:59;8.73;;;2.00;;
52564;SDS011;38460;53.106;7.004;2022-09-21T10:59:30;7.35;;;1.65;;
52564;SDS011;38460;53.106;7.004;2022-09-21T11:01:58;5.38;;;1.17;;
52564;SDS011;38460;53.106;7.004;2022-09-21T11:07:03;4.60;;;1.25;;
52564;SDS011;38460;53.106;7.004;2022-09-21T11:09:59;4.00;;;1.05;;
52564;SDS011;38460;53.106;7.004;2022-09-21T11:12:33;3.78;;;1.20;;
52564;SDS011;38460;53.106;7.004;2022-09-21T11:17:44;8.30;;;1.25;;
52564;SDS011;38460;53.106;7.004;2022-09-21T11:20:21;3.65;;;1.23;;
52564;SDS011;38460;53.106;7.004;2022-09-21T11:31:24;4.85;;;1.15;;
52564;SDS011;38460;53.106;7.004;2022-09-21T11:44:54;3.67;;;1.70;;
52564;SDS011;38460;53.106;7.004;2022-09-21T12:06:37;4.15;;;0.98;;
52564;SDS011;38460;53.106;7.004;2022-09-21T12:11:58;4.03;;;1.10;;
52564;SDS011;38460;53.106;7.004;2022-09-21T12:17:37;4.93;;;1.42;;
52564;SDS011;38460;53.106;7.004;2022-09-21T12:20:11;5.37;;;1.47;;
52564;SDS011;38460;53.106;7.004;2022-09-21T12:23:07;3.95;;;1.20;;
52564;SDS011;38460;53.106;7.004;2022-09-21T12:25:41;3.08;;;0.85;;
52564;SDS011;38460;53.106;7.004;2022-09-21T12:28:16;3.63;;;0.90;;
52564;SDS011;38460;53.106;7.004;2022-09-21T12:30:51;3.70;;;1.10;;
52564;SDS011;38460;53.106;7.004;2022-09-21T12:36:17;3.70;;;1.05;;
52564;SDS011;38460;53.106;7.004;2022-09-21T12:41:37;3.78;;;0.90;;
52564;SDS011;38460;53.106;7.004;2022-09-21T12:47:40;2.88;;;0.70;;
52564;SDS011;38460;53.106;7.004;2022-09-21T12:50:45;3.22;;;0.90;;
52564;SDS011;38460;53.106;7.004;2022-09-21T12:53:25;3.38;;;1.17;;
52564;SDS011;38460;53.106;7.004;2022-09-21T12:56:12;4.50;;;0.85;;
52564;SDS011;38460;53.106;7.004;2022-09-21T13:09:47;5.13;;;1.13;;
52564;SDS011;38460;53.106;7.004;2022-09-21T13:12:19;2.83;;;1.00;;
52564;SDS011;38460;53.106;7.004;2022-09-21T13:14:54;3.28;;;0.90;;
52564;SDS011;38460;53.106;7.004;2022-09-21T13:17:27;2.60;;;0.85;;
52564;SDS011;38460;53.106;7.004;2022-09-21T13:20:00;3.45;;;1.00;;
52564;SDS011;38460;53.106;7.004;2022-09-21T13:22:38;2.85;;;0.85;;
52564;SDS011;38460;53.106;7.004;2022-09-21T13:27:58;5.50;;;1.10;;
52564;SDS011;38460;53.106;7.004;2022-09-21T13:30:28;2.88;;;0.90;;
52564;SDS011;38460;53.106;7.004;2022-09-21T13:32:56;3.70;;;1.33;;
52564;SDS011;38460;53.106;7.004;2022-09-21T13:38:33;4.20;;;1.02;;
52564;SDS011;38460;53.106;7.004;2022-09-21T13:41:25;4.50;;;1.15;;
52564;SDS011;38460;53.106;7.004;2022-09-21T13:49:02;3.33;;;0.82;;
52564;SDS011;38460;53.106;7.004;2022-09-21T13:54:36;2.50;;;0.80;;
52564;SDS011;38460;53.106;7.004;2022-09-21T14:05:38;2.70;;;1.00;;
52564;SDS011;38460;53.106;7.004;2022-09-21T14:08:06;3.78;;;1.10;;
52564;SDS011;38460;53.106;7.004;2022-09-21T14:10:57;4.18;;;0.90;;
52564;SDS011;38460;53.106;7.004;2022-09-21T14:13:39;4.78;;;1.30;;
52564;SDS011;38460;53.106;7.004;2022-09-21T14:18:52;5.85;;;1.02;;
52564;SDS011;38460;53.106;7.004;2022-09-21T14:21:18;4.72;;;1.10;;
52564;SDS011;38460;53.106;7.004;2022-09-21T14:26:32;3.15;;;1.08;;
52564;SDS011;38460;53.106;7.004;2022-09-21T14:29:07;3.47;;;1.00;;
52564;SDS011;38460;53.106;7.004;2022-09-21T14:31:45;3.97;;;0.85;;
52564;SDS011;38460;53.106;7.004;2022-09-21T14:34:17;4.78;;;1.00;;
52564;SDS011;38460;53.106;7.004;2022-09-21T14:36:47;3.85;;;1.00;;
52564;SDS011;38460;53.106;7.004;2022-09-21T14:39:17;3.00;;;0.80;;
52564;SDS011;38460;53.106;7.004;2022-09-21T14:41:50;4.28;;;0.88;;
52564;SDS011;38460;53.106;7.004;2022-09-21T14:44:20;3.65;;;1.13;;
52564;SDS011;38460;53.106;7.004;2022-09-21T14:46:56;3.45;;;0.98;;
52564;SDS011;38460;53.106;7.004;2022-09-21T14:55:15;2.22;;;0.68;;
52564;SDS011;38460;53.106;7.004;2022-09-21T15:00:43;3.42;;;1.08;;
52564;SDS011;38460;53.106;7.004;2022-09-21T15:09:38;3.13;;;1.02;;
52564;SDS011;38460;53.106;7.004;2022-09-21T15:18:13;4.32;;;0.95;;
52564;SDS011;38460;53.106;7.004;2022-09-21T15:20:52;3.50;;;1.08;;
52564;SDS011;38460;53.106;7.004;2022-09-21T15:23:25;3.65;;;0.75;;
52564;SDS011;38460;53.106;7.004;2022-09-21T15:26:12;2.22;;;1.00;;
52564;SDS011;38460;53.106;7.004;2022-09-21T15:28:49;3.70;;;1.17;;
52564;SDS011;38460;53.106;7.004;2022-09-21T15:31:19;3.58;;;0.80;;
52564;SDS011;38460;53.106;7.004;2022-09-21T15:33:45;2.75;;;0.77;;
52564;SDS011;38460;53.106;7.004;2022-09-21T15:36:46;3.70;;;0.90;;
52564;SDS011;38460;53.106;7.004;2022-09-21T15:39:15;3.83;;;1.02;;
52564;SDS011;38460;53.106;7.004;2022-09-21T15:44:32;2.55;;;0.90;;
52564;SDS011;38460;53.106;7.004;2022-09-21T15:46:58;2.17;;;0.80;;
52564;SDS011;38460;53.106;7.004;2022-09-21T15:49:27;3.63;;;1.00;;
52564;SDS011;38460;53.106;7.004;2022-09-21T15:52:15;2.92;;;1.30;;
52564;SDS011;38460;53.106;7.004;2022-09-21T15:55:00;1.70;;;1.00;;
52564;SDS011;38460;53.106;7.004;2022-09-21T15:57:39;4.45;;;1.13;;
52564;SDS011;38460;53.106;7.004;2022-09-21T16:02:39;4.18;;;1.10;;
52564;SDS011;38460;53.106;7.004;2022-09-21T16:05:09;4.88;;;1.05;;
52564;SDS011;38460;53.106;7.004;2022-09-21T16:07:38;6.68;;;1.88;;
52564;SDS011;38460;53.106;7.004;2022-09-21T16:13:17;24.75;;;8.88;;
52564;SDS011;38460;53.106;7.004;2022-09-21T16:16:06;55.85;;;21.38;;
52564;SDS011;38460;53.106;7.004;2022-09-21T16:18:52;5.80;;;3.08;;
52564;SDS011;38460;53.106;7.004;2022-09-21T16:24:18;7.50;;;3.03;;
52564;SDS011;38460;53.106;7.004;2022-09-21T16:26:56;26.23;;;9.63;;
52564;SDS011;38460;53.106;7.004;2022-09-21T16:29:36;41.03;;;15.18;;
52564;SDS011;38460;53.106;7.004;2022-09-21T16:34:50;7.63;;;3.25;;
52564;SDS011;38460;53.106;7.004;2022-09-21T16:39:52;3.60;;;2.17;;
52564;SDS011;38460;53.106;7.004;2022-09-21T16:42:20;4.22;;;2.00;;
52564;SDS011;38460;53.106;7.004;2022-09-21T16:44:47;3.88;;;1.63;;
52564;SDS011;38460;53.106;7.004;2022-09-21T16:47:14;4.47;;;1.80;;
52564;SDS011;38460;53.106;7.004;2022-09-21T16:49:49;5.18;;;1.90;;
52564;SDS011;38460;53.106;7.004;2022-09-21T16:52:23;3.63;;;1.63;;
52564;SDS011;38460;53.106;7.004;2022-09-21T16:54:50;3.95;;;2.08;;
52564;SDS011;38460;53.106;7.004;2022-09-21T16:57:16;5.72;;;2.10;;
52564;SDS011;38460;53.106;7.004;2022-09-21T16:59:42;3.05;;;1.42;;
52564;SDS011;38460;53.106;7.004;2022-09-21T17:02:11;5.82;;;1.65;;
52564;SDS011;38460;53.106;7.004;2022-09-21T17:04:38;6.53;;;1.30;;
52564;SDS011;38460;53.106;7.004;2022-09-21T17:07:04;4.15;;;1.30;;
52564;SDS011;38460;53.106;7.004;2022-09-21T17:09:35;2.13;;;1.05;;
52564;SDS011;38460;53.106;7.004;2022-09-21T17:12:08;2.72;;;1.23;;
52564;SDS011;38460;53.106;7.004;2022-09-21T17:14:37;5.32;;;1.17;;
52564;SDS011;38460;53.106;7.004;2022-09-21T17:17:05;5.85;;;1.35;;
52564;SDS011;38460;53.106;7.004;2022-09-21T17:19:37;6.95;;;1.88;;
52564;SDS011;38460;53.106;7.004;2022-09-21T17:22:06;3.25;;;1.13;;
52564;SDS011;38460;53.106;7.004;2022-09-21T17:24:41;3.05;;;1.00;;
52564;SDS011;38460;53.106;7.004;2022-09-21T17:27:09;4.15;;;1.88;;
52564;SDS011;38460;53.106;7.004;2022-09-21T17:29:41;3.20;;;1.27;;
52564;SDS011;38460;53.106;7.004;2022-09-21T17:32:13;2.85;;;1.13;;
52564;SDS011;38460;53.106;7.004;2022-09-21T17:37:42;5.22;;;1.30;;
52564;SDS011;38460;53.106;7.004;2022-09-21T17:40:08;4.65;;;1.52;;
52564;SDS011;38460;53.106;7.004;2022-09-21T17:42:39;3.92;;;1.83;;
52564;SDS011;38460;53.106;7.004;2022-09-21T17:47:39;5.13;;;1.80;;
52564;SDS011;38460;53.106;7.004;2022-09-21T17:52:41;4.35;;;1.38;;
52564;SDS011;38460;53.106;7.004;2022-09-21T17:55:26;5.28;;;1.60;;
52564;SDS011;38460;53.106;7.004;2022-09-21T18:03:30;5.18;;;2.15;;
52564;SDS011;38460;53.106;7.004;2022-09-21T18:06:00;4.53;;;2.23;;
52564;SDS011;38460;53.106;7.004;2022-09-21T18:08:26;5.20;;;2.00;;
52564;SDS011;38460;53.106;7.004;2022-09-21T18:13:33;4.22;;;1.90;;
52564;SDS011;38460;53.106;7.004;2022-09-21T18:21:41;4.95;;;2.85;;
52564;SDS011;38460;53.106;7.004;2022-09-21T18:24:23;4.20;;;2.10;;
52564;SDS011;38460;53.106;7.004;2022-09-21T18:26:51;4.22;;;2.13;;
52564;SDS011;38460;53.106;7.004;2022-09-21T18:29:25;3.05;;;1.30;;
52564;SDS011;38460;53.106;7.004;2022-09-21T18:31:59;4.22;;;1.40;;
52564;SDS011;38460;53.106;7.004;2022-09-21T18:48:50;4.32;;;2.22;;
52564;SDS011;38460;53.106;7.004;2022-09-21T18:51:21;5.72;;;1.83;;
52564;SDS011;38460;53.106;7.004;2022-09-21T18:53:55;4.18;;;1.70;;
52564;SDS011;38460;53.106;7.004;2022-09-21T18:56:22;5.72;;;1.70;;
52564;SDS011;38460;53.106;7.004;2022-09-21T18:58:55;4.40;;;1.70;;
52564;SDS011;38460;53.106;7.004;2022-09-21T19:01:22;2.53;;;1.30;;
52564;SDS011;38460;53.106;7.004;2022-09-21T19:03:48;3.25;;;1.45;;
52564;SDS011;38460;53.106;7.004;2022-09-21T19:06:33;4.75;;;1.73;;
52564;SDS011;38460;53.106;7.004;2022-09-21T19:20:46;4.63;;;1.77;;
52564;SDS011;38460;53.106;7.004;2022-09-21T19:26:00;4.65;;;1.80;;
52564;SDS011;38460;53.106;7.004;2022-09-21T19:32:15;6.63;;;2.10;;
52564;SDS011;38460;53.106;7.004;2022-09-21T19:34:46;3.35;;;1.75;;
52564;SDS011;38460;53.106;7.004;2022-09-21T19:37:13;7.50;;;1.88;;
52564;SDS011;38460;53.106;7.004;2022-09-21T19:39:39;4.35;;;1.70;;
52564;SDS011;38460;53.106;7.004;2022-09-21T19:47:18;3.25;;;1.73;;
52564;SDS011;38460;53.106;7.004;2022-09-21T19:49:53;4.95;;;1.98;;
52564;SDS011;38460;53.106;7.004;2022-09-21T19:52:38;6.93;;;2.70;;
52564;SDS011;38460;53.106;7.004;2022-09-21T19:55:05;6.35;;;1.90;;
52564;SDS011;38460;53.106;7.004;2022-09-21T19:57:57;5.80;;;2.15;;